sensor_id;sensor_type;location;lat;lon;timestamp;P1;durP1;ratioP1;P2;durP2;ratioP2
36443;SDS011;24692;45.642;13.806;2024-01-16T00:01:20;6.07;;;4.17;;
36443;SDS011;24692;45.642;13.806;2024-01-16T00:03:46;5.90;;;3.70;;
36443;SDS011;24692;45.642;13.806;2024-01-16T00:06:11;6.23;;;4.00;;
36443;SDS011;24692;45.642;13.806;2024-01-16T00:08:37;6.80;;;3.90;;
36443;SDS011;24692;45.642;13.806;2024-01-16T00:11:03;4.47;;;3.53;;
36443;SDS011;24692;45.642;13.806;2024-01-16T00:13:29;4.20;;;3.80;;
36443;SDS011;24692;45.642;13.806;2024-01-16T00:15:55;5.33;;;3.83;;
36443;SDS011;24692;45.642;13.806;2024-01-16T00:18:23;5.10;;;4.00;;
36443;SDS011;24692;45.642;13.806;2024-01-16T00:20:49;5.73;;;3.87;;
36443;SDS011;24692;45.642;13.806;2024-01-16T00:23:14;5.07;;;3.93;;
36443;SDS011;24692;45.642;13.806;2024-01-16T00:25:40;4.03;;;3.50;;
36443;SDS011;24692;45.642;13.806;2024-01-16T00:28:06;5.57;;;3.63;;
36443;SDS011;24692;45.642;13.806;2024-01-16T00:30:32;5.20;;;3.57;;
36443;SDS011;24692;45.642;13.806;2024-01-16T00:32:58;6.60;;;3.87;;
36443;SDS011;24692;45.642;13.806;2024-01-16T00:35:24;4.57;;;3.43;;
36443;SDS011;24692;45.642;13.806;2024-01-16T00:37:50;5.80;;;4.00;;
36443;SDS011;24692;45.642;13.806;2024-01-16T00:40:17;5.27;;;3.70;;
36443;SDS011;24692;45.642;13.806;2024-01-16T00:42:42;4.17;;;3.20;;
36443;SDS011;24692;45.642;13.806;2024-01-16T00:45:08;4.13;;;3.07;;
36443;SDS011;24692;45.642;13.806;2024-01-16T00:47:34;4.27;;;3.20;;
36443;SDS011;24692;45.642;13.806;2024-01-16T00:49:59;3.97;;;3.30;;
36443;SDS011;24692;45.642;13.806;2024-01-16T00:52:26;6.03;;;3.80;;
36443;SDS011;24692;45.642;13.806;2024-01-16T00:54:52;3.77;;;2.93;;
36443;SDS011;24692;45.642;13.806;2024-01-16T00:57:18;3.67;;;2.70;;
36443;SDS011;24692;45.642;13.806;2024-01-16T00:59:45;3.00;;;2.63;;
36443;SDS011;24692;45.642;13.806;2024-01-16T01:02:14;4.63;;;2.90;;
36443;SDS011;24692;45.642;13.806;2024-01-16T01:04:40;4.50;;;2.40;;
36443;SDS011;24692;45.642;13.806;2024-01-16T01:07:08;3.20;;;2.60;;
36443;SDS011;24692;45.642;13.806;2024-01-16T01:09:37;3.70;;;3.00;;
36443;SDS011;24692;45.642;13.806;2024-01-16T01:12:03;4.53;;;3.03;;
36443;SDS011;24692;45.642;13.806;2024-01-16T01:14:29;3.33;;;2.50;;
36443;SDS011;24692;45.642;13.806;2024-01-16T01:16:54;3.60;;;2.77;;
36443;SDS011;24692;45.642;13.806;2024-01-16T01:19:20;2.60;;;2.37;;
36443;SDS011;24692;45.642;13.806;2024-01-16T01:21:46;2.90;;;2.20;;
36443;SDS011;24692;45.642;13.806;2024-01-16T01:24:11;5.43;;;2.67;;
36443;SDS011;24692;45.642;13.806;2024-01-16T01:26:37;2.90;;;2.37;;
36443;SDS011;24692;45.642;13.806;2024-01-16T01:29:03;3.30;;;2.43;;
36443;SDS011;24692;45.642;13.806;2024-01-16T01:31:28;2.47;;;2.27;;
36443;SDS011;24692;45.642;13.806;2024-01-16T01:33:54;2.80;;;2.50;;
36443;SDS011;24692;45.642;13.806;2024-01-16T01:36:20;1.97;;;1.80;;
36443;SDS011;24692;45.642;13.806;2024-01-16T01:38:45;2.33;;;2.00;;
36443;SDS011;24692;45.642;13.806;2024-01-16T01:41:11;2.67;;;2.20;;
36443;SDS011;24692;45.642;13.806;2024-01-16T01:43:40;3.17;;;2.50;;
36443;SDS011;24692;45.642;13.806;2024-01-16T01:48:34;2.47;;;2.03;;
36443;SDS011;24692;45.642;13.806;2024-01-16T01:51:05;2.63;;;2.00;;
36443;SDS011;24692;45.642;13.806;2024-01-16T01:53:31;2.67;;;2.10;;
36443;SDS011;24692;45.642;13.806;2024-01-16T01:56:00;2.97;;;2.00;;
36443;SDS011;24692;45.642;13.806;2024-01-16T01:58:31;2.67;;;2.10;;
36443;SDS011;24692;45.642;13.806;2024-01-16T02:00:57;3.27;;;2.00;;
36443;SDS011;24692;45.642;13.806;2024-01-16T02:03:23;2.50;;;2.20;;
36443;SDS011;24692;45.642;13.806;2024-01-16T02:05:52;2.03;;;1.77;;
36443;SDS011;24692;45.642;13.806;2024-01-16T02:08:18;2.50;;;2.00;;
36443;SDS011;24692;45.642;13.806;2024-01-16T02:10:45;2.17;;;1.97;;
36443;SDS011;24692;45.642;13.806;2024-01-16T02:13:12;2.20;;;2.00;;
36443;SDS011;24692;45.642;13.806;2024-01-16T02:15:38;2.27;;;1.90;;
36443;SDS011;24692;45.642;13.806;2024-01-16T02:18:06;2.10;;;1.90;;
36443;SDS011;24692;45.642;13.806;2024-01-16T02:20:32;2.07;;;1.83;;
36443;SDS011;24692;45.642;13.806;2024-01-16T02:22:59;2.43;;;1.90;;
36443;SDS011;24692;45.642;13.806;2024-01-16T02:25:28;2.20;;;2.00;;
36443;SDS011;24692;45.642;13.806;2024-01-16T02:27:54;2.20;;;1.90;;
36443;SDS011;24692;45.642;13.806;2024-01-16T02:30:20;2.27;;;2.07;;
36443;SDS011;24692;45.642;13.806;2024-01-16T02:32:45;2.20;;;2.00;;
36443;SDS011;24692;45.642;13.806;2024-01-16T02:35:11;2.40;;;1.83;;
36443;SDS011;24692;45.642;13.806;2024-01-16T02:37:37;2.37;;;2.00;;
36443;SDS011;24692;45.642;13.806;2024-01-16T02:40:02;2.40;;;1.90;;
36443;SDS011;24692;45.642;13.806;2024-01-16T02:42:31;2.20;;;1.87;;
36443;SDS011;24692;45.642;13.806;2024-01-16T02:44:57;2.93;;;1.97;;
36443;SDS011;24692;45.642;13.806;2024-01-16T02:47:23;2.10;;;1.90;;
36443;SDS011;24692;45.642;13.806;2024-01-16T02:49:49;2.30;;;2.10;;
36443;SDS011;24692;45.642;13.806;2024-01-16T02:52:15;2.30;;;1.90;;
36443;SDS011;24692;45.642;13.806;2024-01-16T02:54:41;2.73;;;2.20;;
36443;SDS011;24692;45.642;13.806;2024-01-16T02:57:06;2.20;;;1.83;;
36443;SDS011;24692;45.642;13.806;2024-01-16T02:59:32;2.23;;;2.00;;
36443;SDS011;24692;45.642;13.806;2024-01-16T03:01:58;2.00;;;1.73;;
36443;SDS011;24692;45.642;13.806;2024-01-16T03:04:23;2.30;;;2.00;;
36443;SDS011;24692;45.642;13.806;2024-01-16T03:06:49;2.73;;;2.17;;
36443;SDS011;24692;45.642;13.806;2024-01-16T03:09:15;3.13;;;1.90;;
36443;SDS011;24692;45.642;13.806;2024-01-16T03:11:41;2.20;;;1.90;;
36443;SDS011;24692;45.642;13.806;2024-01-16T03:14:06;2.10;;;1.87;;
36443;SDS011;24692;45.642;13.806;2024-01-16T03:16:32;1.93;;;1.73;;
36443;SDS011;24692;45.642;13.806;2024-01-16T03:18:58;2.63;;;2.03;;
36443;SDS011;24692;45.642;13.806;2024-01-16T03:21:23;2.87;;;1.90;;
36443;SDS011;24692;45.642;13.806;2024-01-16T03:23:49;2.13;;;1.93;;
36443;SDS011;24692;45.642;13.806;2024-01-16T03:26:15;2.63;;;2.20;;
36443;SDS011;24692;45.642;13.806;2024-01-16T03:28:41;2.47;;;2.10;;
36443;SDS011;24692;45.642;13.806;2024-01-16T03:31:07;3.23;;;2.30;;
36443;SDS011;24692;45.642;13.806;2024-01-16T03:33:33;2.70;;;2.20;;
36443;SDS011;24692;45.642;13.806;2024-01-16T03:36:06;2.93;;;2.20;;
36443;SDS011;24692;45.642;13.806;2024-01-16T03:38:34;2.90;;;2.20;;
36443;SDS011;24692;45.642;13.806;2024-01-16T03:41:01;2.63;;;2.03;;
36443;SDS011;24692;45.642;13.806;2024-01-16T03:43:28;2.53;;;2.30;;
36443;SDS011;24692;45.642;13.806;2024-01-16T03:45:56;2.50;;;2.30;;
36443;SDS011;24692;45.642;13.806;2024-01-16T03:48:22;3.10;;;2.40;;
36443;SDS011;24692;45.642;13.806;2024-01-16T03:50:48;2.97;;;2.23;;
36443;SDS011;24692;45.642;13.806;2024-01-16T03:53:14;2.60;;;2.40;;
36443;SDS011;24692;45.642;13.806;2024-01-16T03:55:39;2.30;;;1.97;;
36443;SDS011;24692;45.642;13.806;2024-01-16T03:58:05;3.03;;;2.53;;
36443;SDS011;24692;45.642;13.806;2024-01-16T04:00:31;3.37;;;2.37;;
36443;SDS011;24692;45.642;13.806;2024-01-16T04:02:57;3.17;;;2.20;;
36443;SDS011;24692;45.642;13.806;2024-01-16T04:05:23;3.87;;;2.40;;
36443;SDS011;24692;45.642;13.806;2024-01-16T04:07:48;2.73;;;2.33;;
36443;SDS011;24692;45.642;13.806;2024-01-16T04:10:14;3.70;;;2.40;;
36443;SDS011;24692;45.642;13.806;2024-01-16T04:12:40;3.17;;;2.23;;
36443;SDS011;24692;45.642;13.806;2024-01-16T04:15:06;2.63;;;2.03;;
36443;SDS011;24692;45.642;13.806;2024-01-16T04:17:32;3.73;;;2.60;;
36443;SDS011;24692;45.642;13.806;2024-01-16T04:19:57;2.77;;;2.50;;
36443;SDS011;24692;45.642;13.806;2024-01-16T04:22:23;2.83;;;2.23;;
36443;SDS011;24692;45.642;13.806;2024-01-16T04:24:49;2.83;;;2.43;;
36443;SDS011;24692;45.642;13.806;2024-01-16T04:27:14;3.50;;;2.30;;
36443;SDS011;24692;45.642;13.806;2024-01-16T04:29:40;2.27;;;2.07;;
36443;SDS011;24692;45.642;13.806;2024-01-16T04:32:05;2.33;;;2.00;;
36443;SDS011;24692;45.642;13.806;2024-01-16T04:34:31;2.77;;;2.13;;
36443;SDS011;24692;45.642;13.806;2024-01-16T04:36:57;2.60;;;2.27;;
36443;SDS011;24692;45.642;13.806;2024-01-16T04:39:22;2.30;;;2.10;;
36443;SDS011;24692;45.642;13.806;2024-01-16T04:41:51;3.40;;;1.97;;
36443;SDS011;24692;45.642;13.806;2024-01-16T04:44:16;2.20;;;1.77;;
36443;SDS011;24692;45.642;13.806;2024-01-16T04:46:42;3.13;;;2.30;;
36443;SDS011;24692;45.642;13.806;2024-01-16T04:49:08;2.20;;;2.00;;
36443;SDS011;24692;45.642;13.806;2024-01-16T04:51:34;3.03;;;1.90;;
36443;SDS011;24692;45.642;13.806;2024-01-16T04:53:59;2.30;;;1.90;;
36443;SDS011;24692;45.642;13.806;2024-01-16T04:56:25;2.37;;;1.80;;
36443;SDS011;24692;45.642;13.806;2024-01-16T04:58:51;2.00;;;1.60;;
36443;SDS011;24692;45.642;13.806;2024-01-16T05:01:17;2.60;;;2.03;;
36443;SDS011;24692;45.642;13.806;2024-01-16T05:03:43;1.97;;;1.70;;
36443;SDS011;24692;45.642;13.806;2024-01-16T05:06:12;2.27;;;1.80;;
36443;SDS011;24692;45.642;13.806;2024-01-16T05:08:39;2.33;;;2.00;;
36443;SDS011;24692;45.642;13.806;2024-01-16T05:11:06;2.17;;;1.80;;
36443;SDS011;24692;45.642;13.806;2024-01-16T05:13:31;2.43;;;1.60;;
36443;SDS011;24692;45.642;13.806;2024-01-16T05:15:57;2.00;;;1.80;;
36443;SDS011;24692;45.642;13.806;2024-01-16T05:18:23;1.80;;;1.43;;
36443;SDS011;24692;45.642;13.806;2024-01-16T05:20:49;1.80;;;1.70;;
36443;SDS011;24692;45.642;13.806;2024-01-16T05:23:14;1.70;;;1.50;;
36443;SDS011;24692;45.642;13.806;2024-01-16T05:25:40;1.77;;;1.47;;
36443;SDS011;24692;45.642;13.806;2024-01-16T05:28:05;3.17;;;1.70;;
36443;SDS011;24692;45.642;13.806;2024-01-16T05:30:32;2.50;;;1.80;;
36443;SDS011;24692;45.642;13.806;2024-01-16T05:32:58;2.17;;;1.70;;
36443;SDS011;24692;45.642;13.806;2024-01-16T05:35:27;2.20;;;1.90;;
36443;SDS011;24692;45.642;13.806;2024-01-16T05:37:53;2.40;;;1.60;;
36443;SDS011;24692;45.642;13.806;2024-01-16T05:40:20;2.33;;;1.57;;
36443;SDS011;24692;45.642;13.806;2024-01-16T05:42:47;2.43;;;1.83;;
36443;SDS011;24692;45.642;13.806;2024-01-16T05:45:16;2.00;;;1.67;;
36443;SDS011;24692;45.642;13.806;2024-01-16T05:47:42;1.90;;;1.60;;
36443;SDS011;24692;45.642;13.806;2024-01-16T05:50:08;2.00;;;1.70;;
36443;SDS011;24692;45.642;13.806;2024-01-16T05:52:34;3.23;;;1.80;;
36443;SDS011;24692;45.642;13.806;2024-01-16T05:55:00;2.43;;;1.73;;
36443;SDS011;24692;45.642;13.806;2024-01-16T05:57:27;1.90;;;1.60;;
36443;SDS011;24692;45.642;13.806;2024-01-16T05:59:56;1.57;;;1.40;;
36443;SDS011;24692;45.642;13.806;2024-01-16T06:02:22;1.67;;;1.50;;
36443;SDS011;24692;45.642;13.806;2024-01-16T06:04:48;3.70;;;1.60;;
36443;SDS011;24692;45.642;13.806;2024-01-16T06:07:13;1.90;;;1.70;;
36443;SDS011;24692;45.642;13.806;2024-01-16T06:09:39;2.50;;;1.60;;
36443;SDS011;24692;45.642;13.806;2024-01-16T06:12:05;1.90;;;1.80;;
36443;SDS011;24692;45.642;13.806;2024-01-16T06:14:32;1.83;;;1.60;;
36443;SDS011;24692;45.642;13.806;2024-01-16T06:16:58;2.10;;;1.90;;
36443;SDS011;24692;45.642;13.806;2024-01-16T06:19:24;2.30;;;2.10;;
36443;SDS011;24692;45.642;13.806;2024-01-16T06:21:49;2.30;;;2.00;;
36443;SDS011;24692;45.642;13.806;2024-01-16T06:24:15;2.17;;;1.97;;
36443;SDS011;24692;45.642;13.806;2024-01-16T06:26:41;2.90;;;1.63;;
36443;SDS011;24692;45.642;13.806;2024-01-16T06:29:07;2.10;;;1.90;;
36443;SDS011;24692;45.642;13.806;2024-01-16T06:31:33;1.67;;;1.57;;
36443;SDS011;24692;45.642;13.806;2024-01-16T06:33:58;2.03;;;1.60;;
36443;SDS011;24692;45.642;13.806;2024-01-16T06:36:24;2.43;;;1.97;;
36443;SDS011;24692;45.642;13.806;2024-01-16T06:38:50;3.47;;;1.90;;
36443;SDS011;24692;45.642;13.806;2024-01-16T06:41:15;2.10;;;1.90;;
36443;SDS011;24692;45.642;13.806;2024-01-16T06:43:41;1.67;;;1.57;;
36443;SDS011;24692;45.642;13.806;2024-01-16T06:46:07;2.30;;;1.60;;
36443;SDS011;24692;45.642;13.806;2024-01-16T06:48:34;1.77;;;1.63;;
36443;SDS011;24692;45.642;13.806;2024-01-16T06:51:01;3.10;;;1.50;;
36443;SDS011;24692;45.642;13.806;2024-01-16T06:53:27;1.70;;;1.40;;
36443;SDS011;24692;45.642;13.806;2024-01-16T06:55:53;2.43;;;1.90;;
36443;SDS011;24692;45.642;13.806;2024-01-16T06:58:19;1.80;;;1.70;;
36443;SDS011;24692;45.642;13.806;2024-01-16T07:00:46;1.80;;;1.70;;
36443;SDS011;24692;45.642;13.806;2024-01-16T07:03:12;2.00;;;1.80;;
36443;SDS011;24692;45.642;13.806;2024-01-16T07:05:38;2.97;;;2.00;;
36443;SDS011;24692;45.642;13.806;2024-01-16T07:08:06;3.07;;;1.90;;
36443;SDS011;24692;45.642;13.806;2024-01-16T07:10:32;2.63;;;1.80;;
36443;SDS011;24692;45.642;13.806;2024-01-16T07:12:59;3.93;;;1.70;;
36443;SDS011;24692;45.642;13.806;2024-01-16T07:15:25;2.23;;;1.80;;
36443;SDS011;24692;45.642;13.806;2024-01-16T07:17:51;2.20;;;1.70;;
36443;SDS011;24692;45.642;13.806;2024-01-16T07:20:16;2.83;;;1.73;;
36443;SDS011;24692;45.642;13.806;2024-01-16T07:22:42;3.37;;;1.67;;
36443;SDS011;24692;45.642;13.806;2024-01-16T07:25:09;3.13;;;2.30;;
36443;SDS011;24692;45.642;13.806;2024-01-16T07:27:35;2.73;;;1.90;;
36443;SDS011;24692;45.642;13.806;2024-01-16T07:30:01;2.77;;;1.77;;
36443;SDS011;24692;45.642;13.806;2024-01-16T07:32:29;2.50;;;1.90;;
36443;SDS011;24692;45.642;13.806;2024-01-16T07:34:55;3.90;;;1.83;;
36443;SDS011;24692;45.642;13.806;2024-01-16T07:37:20;2.20;;;1.77;;
36443;SDS011;24692;45.642;13.806;2024-01-16T07:39:47;1.83;;;1.53;;
36443;SDS011;24692;45.642;13.806;2024-01-16T07:42:12;1.87;;;1.60;;
36443;SDS011;24692;45.642;13.806;2024-01-16T07:44:38;4.70;;;2.43;;
36443;SDS011;24692;45.642;13.806;2024-01-16T07:47:04;3.97;;;1.63;;
36443;SDS011;24692;45.642;13.806;2024-01-16T07:49:30;6.73;;;1.70;;
36443;SDS011;24692;45.642;13.806;2024-01-16T07:51:56;1.40;;;1.30;;
36443;SDS011;24692;45.642;13.806;2024-01-16T07:54:21;1.67;;;1.57;;
36443;SDS011;24692;45.642;13.806;2024-01-16T07:56:47;1.50;;;1.40;;
36443;SDS011;24692;45.642;13.806;2024-01-16T07:59:13;1.80;;;1.70;;
36443;SDS011;24692;45.642;13.806;2024-01-16T08:01:39;3.37;;;1.50;;
36443;SDS011;24692;45.642;13.806;2024-01-16T08:04:04;1.70;;;1.60;;
36443;SDS011;24692;45.642;13.806;2024-01-16T08:06:30;5.70;;;1.70;;
36443;SDS011;24692;45.642;13.806;2024-01-16T08:08:56;2.10;;;1.50;;
36443;SDS011;24692;45.642;13.806;2024-01-16T08:11:23;2.27;;;1.60;;
36443;SDS011;24692;45.642;13.806;2024-01-16T08:13:48;1.93;;;1.60;;
36443;SDS011;24692;45.642;13.806;2024-01-16T08:16:14;3.87;;;1.50;;
36443;SDS011;24692;45.642;13.806;2024-01-16T08:18:40;3.57;;;1.40;;
36443;SDS011;24692;45.642;13.806;2024-01-16T08:21:05;3.07;;;1.40;;
36443;SDS011;24692;45.642;13.806;2024-01-16T08:23:32;2.57;;;1.27;;
36443;SDS011;24692;45.642;13.806;2024-01-16T08:25:58;3.00;;;1.40;;
36443;SDS011;24692;45.642;13.806;2024-01-16T08:28:25;3.43;;;1.90;;
36443;SDS011;24692;45.642;13.806;2024-01-16T08:30:51;1.40;;;1.30;;
36443;SDS011;24692;45.642;13.806;2024-01-16T08:33:17;2.53;;;1.37;;
36443;SDS011;24692;45.642;13.806;2024-01-16T08:35:43;2.50;;;1.70;;
36443;SDS011;24692;45.642;13.806;2024-01-16T08:38:09;4.45;;;1.85;;
36443;SDS011;24692;45.642;13.806;2024-01-16T08:40:35;1.67;;;1.50;;
36443;SDS011;24692;45.642;13.806;2024-01-16T08:43:00;3.47;;;1.50;;
36443;SDS011;24692;45.642;13.806;2024-01-16T08:45:30;2.13;;;1.43;;
36443;SDS011;24692;45.642;13.806;2024-01-16T08:48:06;1.93;;;1.43;;
36443;SDS011;24692;45.642;13.806;2024-01-16T08:50:32;2.13;;;1.50;;
36443;SDS011;24692;45.642;13.806;2024-01-16T08:52:58;2.73;;;1.50;;
36443;SDS011;24692;45.642;13.806;2024-01-16T08:55:23;3.03;;;1.50;;
36443;SDS011;24692;45.642;13.806;2024-01-16T08:57:49;4.17;;;1.60;;
36443;SDS011;24692;45.642;13.806;2024-01-16T09:00:17;2.23;;;1.60;;
36443;SDS011;24692;45.642;13.806;2024-01-16T09:02:43;2.10;;;1.77;;
36443;SDS011;24692;45.642;13.806;2024-01-16T09:05:10;1.40;;;1.30;;
36443;SDS011;24692;45.642;13.806;2024-01-16T09:07:37;2.22;;;1.70;;
36443;SDS011;24692;45.642;13.806;2024-01-16T09:10:02;3.08;;;1.70;;
36443;SDS011;24692;45.642;13.806;2024-01-16T09:12:28;3.40;;;1.50;;
36443;SDS011;24692;45.642;13.806;2024-01-16T09:14:55;1.90;;;1.70;;
36443;SDS011;24692;45.642;13.806;2024-01-16T09:17:22;4.72;;;1.50;;
36443;SDS011;24692;45.642;13.806;2024-01-16T09:19:48;2.00;;;1.63;;
36443;SDS011;24692;45.642;13.806;2024-01-16T09:22:14;2.60;;;1.70;;
36443;SDS011;24692;45.642;13.806;2024-01-16T09:24:41;2.23;;;1.70;;
36443;SDS011;24692;45.642;13.806;2024-01-16T09:27:06;1.73;;;1.50;;
36443;SDS011;24692;45.642;13.806;2024-01-16T09:29:34;2.13;;;1.53;;
36443;SDS011;24692;45.642;13.806;2024-01-16T09:32:00;3.83;;;1.83;;
36443;SDS011;24692;45.642;13.806;2024-01-16T09:34:26;1.73;;;1.60;;
36443;SDS011;24692;45.642;13.806;2024-01-16T09:36:52;4.53;;;1.63;;
36443;SDS011;24692;45.642;13.806;2024-01-16T09:39:18;3.10;;;1.90;;
36443;SDS011;24692;45.642;13.806;2024-01-16T09:41:46;2.97;;;2.00;;
36443;SDS011;24692;45.642;13.806;2024-01-16T09:44:12;2.60;;;1.80;;
36443;SDS011;24692;45.642;13.806;2024-01-16T09:46:38;4.27;;;1.80;;
36443;SDS011;24692;45.642;13.806;2024-01-16T09:49:05;1.60;;;1.50;;
36443;SDS011;24692;45.642;13.806;2024-01-16T09:51:32;2.00;;;1.80;;
36443;SDS011;24692;45.642;13.806;2024-01-16T09:53:57;1.70;;;1.57;;
36443;SDS011;24692;45.642;13.806;2024-01-16T09:56:23;2.00;;;1.80;;
36443;SDS011;24692;45.642;13.806;2024-01-16T09:58:53;2.30;;;1.57;;
36443;SDS011;24692;45.642;13.806;2024-01-16T10:01:23;2.43;;;1.70;;
36443;SDS011;24692;45.642;13.806;2024-01-16T10:03:52;2.03;;;1.60;;
36443;SDS011;24692;45.642;13.806;2024-01-16T10:08:46;1.67;;;1.57;;
36443;SDS011;24692;45.642;13.806;2024-01-16T10:11:12;1.87;;;1.50;;
36443;SDS011;24692;45.642;13.806;2024-01-16T10:13:38;2.63;;;1.77;;
36443;SDS011;24692;45.642;13.806;2024-01-16T10:16:03;2.13;;;1.70;;
36443;SDS011;24692;45.642;13.806;2024-01-16T10:18:29;2.23;;;1.33;;
36443;SDS011;24692;45.642;13.806;2024-01-16T10:20:55;1.83;;;1.55;;
36443;SDS011;24692;45.642;13.806;2024-01-16T10:23:22;1.60;;;1.50;;
36443;SDS011;24692;45.642;13.806;2024-01-16T10:26:10;1.52;;;1.42;;
36443;SDS011;24692;45.642;13.806;2024-01-16T10:28:36;2.60;;;1.80;;
36443;SDS011;24692;45.642;13.806;2024-01-16T10:31:04;2.65;;;1.70;;
36443;SDS011;24692;45.642;13.806;2024-01-16T10:33:30;1.65;;;1.55;;
36443;SDS011;24692;45.642;13.806;2024-01-16T10:38:39;1.80;;;1.67;;
36443;SDS011;24692;45.642;13.806;2024-01-16T10:41:09;3.30;;;1.85;;
36443;SDS011;24692;45.642;13.806;2024-01-16T10:43:36;5.45;;;1.65;;
36443;SDS011;24692;45.642;13.806;2024-01-16T10:46:12;7.18;;;1.80;;
36443;SDS011;24692;45.642;13.806;2024-01-16T10:48:40;3.55;;;1.90;;
36443;SDS011;24692;45.642;13.806;2024-01-16T10:51:11;2.78;;;1.52;;
36443;SDS011;24692;45.642;13.806;2024-01-16T10:53:43;4.35;;;1.92;;
36443;SDS011;24692;45.642;13.806;2024-01-16T10:56:11;2.63;;;1.52;;
36443;SDS011;24692;45.642;13.806;2024-01-16T10:58:41;3.23;;;1.63;;
36443;SDS011;24692;45.642;13.806;2024-01-16T11:01:10;2.33;;;1.70;;
36443;SDS011;24692;45.642;13.806;2024-01-16T11:03:47;2.53;;;1.70;;
36443;SDS011;24692;45.642;13.806;2024-01-16T11:06:15;2.72;;;1.63;;
36443;SDS011;24692;45.642;13.806;2024-01-16T11:08:42;3.30;;;1.83;;
36443;SDS011;24692;45.642;13.806;2024-01-16T11:11:10;5.75;;;2.00;;
36443;SDS011;24692;45.642;13.806;2024-01-16T11:13:38;3.13;;;2.00;;
36443;SDS011;24692;45.642;13.806;2024-01-16T11:16:05;1.58;;;1.48;;
36443;SDS011;24692;45.642;13.806;2024-01-16T11:18:33;1.52;;;1.42;;
36443;SDS011;24692;45.642;13.806;2024-01-16T11:21:00;2.70;;;1.65;;
36443;SDS011;24692;45.642;13.806;2024-01-16T11:23:27;2.38;;;1.83;;
36443;SDS011;24692;45.642;13.806;2024-01-16T11:25:53;3.63;;;2.10;;
36443;SDS011;24692;45.642;13.806;2024-01-16T11:28:19;2.88;;;2.00;;
36443;SDS011;24692;45.642;13.806;2024-01-16T11:30:45;2.00;;;1.80;;
36443;SDS011;24692;45.642;13.806;2024-01-16T11:35:59;1.88;;;1.50;;
36443;SDS011;24692;45.642;13.806;2024-01-16T11:38:25;1.70;;;1.47;;
36443;SDS011;24692;45.642;13.806;2024-01-16T11:40:54;2.60;;;1.90;;
36443;SDS011;24692;45.642;13.806;2024-01-16T11:45:59;3.40;;;1.70;;
36443;SDS011;24692;45.642;13.806;2024-01-16T11:48:25;4.60;;;1.55;;
36443;SDS011;24692;45.642;13.806;2024-01-16T11:50:52;2.65;;;1.52;;
36443;SDS011;24692;45.642;13.806;2024-01-16T11:58:48;2.38;;;1.50;;
36443;SDS011;24692;45.642;13.806;2024-01-16T12:01:35;2.03;;;1.60;;
36443;SDS011;24692;45.642;13.806;2024-01-16T12:04:02;3.42;;;1.50;;
36443;SDS011;24692;45.642;13.806;2024-01-16T12:06:29;2.13;;;1.52;;
36443;SDS011;24692;45.642;13.806;2024-01-16T12:09:10;4.50;;;1.60;;
36443;SDS011;24692;45.642;13.806;2024-01-16T12:11:39;1.92;;;1.50;;
36443;SDS011;24692;45.642;13.806;2024-01-16T12:14:08;7.90;;;2.00;;
36443;SDS011;24692;45.642;13.806;2024-01-16T12:16:33;2.25;;;1.60;;
36443;SDS011;24692;45.642;13.806;2024-01-16T12:21:34;3.05;;;1.35;;
36443;SDS011;24692;45.642;13.806;2024-01-16T12:24:04;2.67;;;1.50;;
36443;SDS011;24692;45.642;13.806;2024-01-16T12:26:30;4.55;;;1.70;;
36443;SDS011;24692;45.642;13.806;2024-01-16T12:28:56;3.38;;;1.70;;
36443;SDS011;24692;45.642;13.806;2024-01-16T12:31:23;4.07;;;1.67;;
36443;SDS011;24692;45.642;13.806;2024-01-16T12:33:49;1.73;;;1.45;;
36443;SDS011;24692;45.642;13.806;2024-01-16T12:36:16;2.78;;;1.58;;
36443;SDS011;24692;45.642;13.806;2024-01-16T12:38:42;4.38;;;1.58;;
36443;SDS011;24692;45.642;13.806;2024-01-16T12:41:09;7.53;;;1.92;;
36443;SDS011;24692;45.642;13.806;2024-01-16T12:43:36;9.02;;;1.73;;
36443;SDS011;24692;45.642;13.806;2024-01-16T12:46:02;1.63;;;1.52;;
36443;SDS011;24692;45.642;13.806;2024-01-16T12:48:28;1.25;;;1.20;;
36443;SDS011;24692;45.642;13.806;2024-01-16T12:51:00;3.38;;;1.42;;
36443;SDS011;24692;45.642;13.806;2024-01-16T12:53:27;1.40;;;1.30;;
36443;SDS011;24692;45.642;13.806;2024-01-16T12:55:57;5.10;;;1.50;;
36443;SDS011;24692;45.642;13.806;2024-01-16T12:58:33;4.32;;;1.90;;
36443;SDS011;24692;45.642;13.806;2024-01-16T13:01:20;2.25;;;1.50;;
36443;SDS011;24692;45.642;13.806;2024-01-16T13:03:46;4.38;;;1.83;;
36443;SDS011;24692;45.642;13.806;2024-01-16T13:06:16;2.58;;;1.50;;
36443;SDS011;24692;45.642;13.806;2024-01-16T13:08:43;4.82;;;1.60;;
36443;SDS011;24692;45.642;13.806;2024-01-16T13:11:09;2.47;;;1.33;;
36443;SDS011;24692;45.642;13.806;2024-01-16T13:13:35;3.38;;;1.42;;
36443;SDS011;24692;45.642;13.806;2024-01-16T13:16:02;1.77;;;1.45;;
36443;SDS011;24692;45.642;13.806;2024-01-16T13:18:32;5.80;;;1.65;;
36443;SDS011;24692;45.642;13.806;2024-01-16T13:21:00;2.78;;;1.45;;
36443;SDS011;24692;45.642;13.806;2024-01-16T13:23:27;3.05;;;1.77;;
36443;SDS011;24692;45.642;13.806;2024-01-16T13:25:54;2.67;;;1.55;;
36443;SDS011;24692;45.642;13.806;2024-01-16T13:28:21;3.05;;;1.70;;
36443;SDS011;24692;45.642;13.806;2024-01-16T13:30:47;3.88;;;1.55;;
36443;SDS011;24692;45.642;13.806;2024-01-16T13:33:14;7.50;;;1.70;;
36443;SDS011;24692;45.642;13.806;2024-01-16T13:35:44;2.95;;;1.63;;
36443;SDS011;24692;45.642;13.806;2024-01-16T13:38:14;1.90;;;1.55;;
36443;SDS011;24692;45.642;13.806;2024-01-16T13:40:44;2.95;;;1.60;;
36443;SDS011;24692;45.642;13.806;2024-01-16T13:43:10;3.13;;;1.77;;
36443;SDS011;24692;45.642;13.806;2024-01-16T13:45:36;3.77;;;2.00;;
36443;SDS011;24692;45.642;13.806;2024-01-16T13:48:03;3.67;;;1.85;;
36443;SDS011;24692;45.642;13.806;2024-01-16T13:50:31;4.85;;;2.90;;
36443;SDS011;24692;45.642;13.806;2024-01-16T13:52:58;7.25;;;4.30;;
36443;SDS011;24692;45.642;13.806;2024-01-16T13:55:27;2.28;;;1.92;;
36443;SDS011;24692;45.642;13.806;2024-01-16T13:57:53;3.47;;;1.88;;
36443;SDS011;24692;45.642;13.806;2024-01-16T14:00:19;2.90;;;1.97;;
36443;SDS011;24692;45.642;13.806;2024-01-16T14:02:46;5.78;;;2.17;;
36443;SDS011;24692;45.642;13.806;2024-01-16T14:05:16;5.00;;;2.57;;
36443;SDS011;24692;45.642;13.806;2024-01-16T14:07:43;2.63;;;2.30;;
36443;SDS011;24692;45.642;13.806;2024-01-16T14:10:11;5.30;;;2.67;;
36443;SDS011;24692;45.642;13.806;2024-01-16T14:12:40;3.77;;;2.33;;
36443;SDS011;24692;45.642;13.806;2024-01-16T14:15:16;4.87;;;2.30;;
36443;SDS011;24692;45.642;13.806;2024-01-16T14:17:53;3.07;;;2.30;;
36443;SDS011;24692;45.642;13.806;2024-01-16T14:20:20;2.73;;;2.23;;
36443;SDS011;24692;45.642;13.806;2024-01-16T14:22:51;4.87;;;2.43;;
36443;SDS011;24692;45.642;13.806;2024-01-16T14:25:18;3.20;;;2.13;;
36443;SDS011;24692;45.642;13.806;2024-01-16T14:27:45;2.20;;;2.00;;
36443;SDS011;24692;45.642;13.806;2024-01-16T14:30:14;3.13;;;2.10;;
36443;SDS011;24692;45.642;13.806;2024-01-16T14:32:41;4.33;;;2.17;;
36443;SDS011;24692;45.642;13.806;2024-01-16T14:35:08;2.77;;;2.30;;
36443;SDS011;24692;45.642;13.806;2024-01-16T14:37:35;3.57;;;2.30;;
36443;SDS011;24692;45.642;13.806;2024-01-16T14:40:01;4.03;;;2.43;;
36443;SDS011;24692;45.642;13.806;2024-01-16T14:42:31;3.17;;;2.33;;
36443;SDS011;24692;45.642;13.806;2024-01-16T14:44:59;4.13;;;2.42;;
36443;SDS011;24692;45.642;13.806;2024-01-16T14:47:25;5.37;;;2.50;;
36443;SDS011;24692;45.642;13.806;2024-01-16T14:49:50;4.75;;;3.33;;
36443;SDS011;24692;45.642;13.806;2024-01-16T14:52:18;4.77;;;3.00;;